TimeEDT,TemperatureF,Dew PointF,Humidity,Sea Level PressureIn,VisibilityMPH,Wind Direction,Wind SpeedMPH,Gust SpeedMPH,PrecipitationIn,Events,Conditions,WindDirDegrees,DateUTC
12:16 AM,57.2,55.4,94,29.79,10.0,NNW,6.9,-,N/A,,Overcast,330,2013-06-14 04:16:00
12:32 AM,57.2,55.4,94,29.79,10.0,NW,6.9,-,N/A,,Overcast,320,2013-06-14 04:32:00
12:54 AM,57.0,55.0,93,29.82,10.0,NW,5.8,-,N/A,,Overcast,320,2013-06-14 04:54:00
1:29 AM,57.2,55.4,94,29.80,10.0,NNW,5.8,-,N/A,,Scattered Clouds,330,2013-06-14 05:29:00
1:42 AM,57.2,55.4,94,29.80,10.0,North,4.6,-,N/A,,Mostly Cloudy,350,2013-06-14 05:42:00
1:54 AM,57.0,55.9,96,29.83,10.0,North,3.5,-,N/A,,Mostly Cloudy,10,2013-06-14 05:54:00
2:54 AM,57.9,55.0,90,29.84,10.0,NW,5.8,-,N/A,,Overcast,320,2013-06-14 06:54:00
3:54 AM,57.9,55.0,90,29.85,10.0,NNW,3.5,-,N/A,,Overcast,330,2013-06-14 07:54:00
4:54 AM,57.9,55.0,90,29.86,10.0,Calm,Calm,-,N/A,,Overcast,0,2013-06-14 08:54:00
5:23 AM,57.2,55.4,94,29.83,10.0,Calm,Calm,-,N/A,,Overcast,0,2013-06-14 09:23:00
5:39 AM,57.2,55.4,94,29.84,10.0,Calm,Calm,-,N/A,,Overcast,0,2013-06-14 09:39:00
5:47 AM,57.2,55.4,94,29.84,10.0,Calm,Calm,-,N/A,,Overcast,0,2013-06-14 09:47:00
5:54 AM,57.9,55.0,90,29.86,10.0,Calm,Calm,-,N/A,,Overcast,0,2013-06-14 09:54:00
6:54 AM,57.9,55.0,90,29.89,10.0,Calm,Calm,-,N/A,,Overcast,0,2013-06-14 10:54:00
7:17 AM,57.2,55.4,94,29.87,10.0,Calm,Calm,-,N/A,,Overcast,0,2013-06-14 11:17:00
7:54 AM,59.0,55.0,87,29.91,10.0,NNW,6.9,-,N/A,,Overcast,330,2013-06-14 11:54:00
8:34 AM,59.0,55.4,88,29.89,9.0,NNW,8.1,-,N/A,,Overcast,340,2013-06-14 12:34:00
8:54 AM,59.0,55.9,90,29.92,9.0,NNW,6.9,-,N/A,,Overcast,340,2013-06-14 12:54:00
9:15 AM,60.8,57.2,88,29.90,10.0,North,6.9,-,N/A,,Overcast,350,2013-06-14 13:15:00
9:54 AM,62.1,57.0,84,29.94,10.0,NNW,9.2,-,N/A,,Overcast,330,2013-06-14 13:54:00
10:54 AM,64.9,57.0,75,29.94,10.0,NW,11.5,-,N/A,,Overcast,320,2013-06-14 14:54:00
11:41 AM,64.4,55.4,73,29.94,10.0,NW,12.7,-,N/A,,Overcast,320,2013-06-14 15:41:00
11:54 AM,66.0,57.0,73,29.96,10.0,NW,8.1,-,N/A,,Overcast,310,2013-06-14 15:54:00
12:54 PM,68.0,57.0,68,29.96,10.0,NW,9.2,-,N/A,,Overcast,310,2013-06-14 16:54:00
1:54 PM,71.1,57.0,61,29.96,10.0,NW,10.4,-,N/A,,Scattered Clouds,310,2013-06-14 17:54:00
2:54 PM,72.0,57.0,59,29.96,10.0,NNW,11.5,-,N/A,,Partly Cloudy,340,2013-06-14 18:54:00
3:54 PM,73.9,57.9,57,29.96,10.0,North,16.1,-,N/A,,Scattered Clouds,350,2013-06-14 19:54:00
4:54 PM,73.0,55.9,55,29.95,10.0,NNW,13.8,-,N/A,,Scattered Clouds,330,2013-06-14 20:54:00
5:54 PM,73.9,55.9,53,29.96,10.0,NW,15.0,19.6,N/A,,Mostly Cloudy,320,2013-06-14 21:54:00
6:54 PM,72.0,54.0,53,29.96,10.0,NW,9.2,-,N/A,,Clear,310,2013-06-14 22:54:00
7:54 PM,70.0,55.9,61,29.98,10.0,NW,9.2,-,N/A,,Clear,320,2013-06-14 23:54:00
8:54 PM,66.9,55.9,68,29.99,10.0,WNW,3.5,-,N/A,,Clear,300,2013-06-15 00:54:00
9:54 PM,62.1,57.0,84,30.01,10.0,Calm,Calm,-,N/A,,Clear,0,2013-06-15 01:54:00
10:54 PM,60.1,55.9,86,30.02,10.0,ESE,3.5,-,N/A,,Clear,120,2013-06-15 02:54:00
11:54 PM,59.0,55.9,90,30.03,10.0,SSE,4.6,-,N/A,,Clear,160,2013-06-15 03:54:00